x

Sand Key, Fl (sanf1) Weather Station

4:50am - Thu 2nd Apr 2015 All times are CDT. -4 hours from GMT.

  • Wind
    15mph, 18mph gusts
  • Air Temp 75°f
  • Sea Pressure 1019.1mb
  • Sand Key, Fl
  • Sand Key, Fl

More Historic Weather Station data

Upgrade to MSW Pro to gain access to the past 30 days of data for over 8000 Wavebouys and Weather Stations around the globe.

Join Pro

Comparision Forecast

View Surf forecast
   
Thu 04/02 4:50am 15 18 mph 1019.1mb 75f
3:50am 14 15 mph 1019.4mb 75f
2:50am 14 16 mph 1019.9mb 75f
1:50am 14 16 mph 1020.3mb 75f
12:50am 13 15 mph 1020.6mb 75f
Wed 04/01 11:50pm 13 15 mph 1020.6mb 75f
10:50pm 13 15 mph 1020.4mb 75f
9:50pm 14 16 mph 1019.6mb 75f
8:50pm 13 14 mph 1019.4mb 76f
7:50pm 10 13 mph 1019.4mb 76f
6:50pm 10 11 mph 1019mb 75f
5:50pm 11 15 mph 1018.7mb 75f
4:50pm 11 14 mph 1018.8mb 74f
3:50pm 13 14 mph 1019.1mb 74f
2:50pm 11 15 mph 1019.5mb 74f
1:50pm 11 14 mph 1020.3mb 74f
12:50pm 11 13 mph 1021.2mb 74f
11:50am 11 14 mph 1021.6mb 74f
10:50am 11 13 mph 1021.6mb 74f
9:50am 11 15 mph 1021.1mb 74f
8:50am 13 14 mph 1020.4mb 73f
7:50am 9 11 mph 1019.9mb 74f
6:50am 8 10 mph 1019.2mb 74f
5:50am 7 10 mph 1018.9mb 74f
4:50am 7 9 mph 1018.8mb 74f
3:50am 8 9 mph 1019mb 74f
2:50am 8 9 mph 1019.3mb 74f
1:50am 9 11 mph 1019.8mb 74f
12:50am 10 14 mph 1020.1mb 74f
Tue 03/31 11:50pm 10 13 mph 1020.3mb 74f
10:50pm 9 13 mph 1020.6mb 74f
9:50pm 9 14 mph 1020mb 74f
8:50pm 9 11 mph 1019.8mb 73f
7:50pm 7 10 mph 1019.5mb 73f
6:50pm 9 11 mph 1019.2mb 73f
5:50pm 9 11 mph 1019.1mb 73f
4:50pm 10 13 mph 1019.3mb 73f
3:50pm 10 11 mph 1019.8mb 73f
2:50pm 13 15 mph 1020.5mb 74f
1:50pm 13 15 mph 1021.3mb 73f
12:50pm 13 15 mph 1021.8mb 73f
11:50am 14 16 mph 1022.1mb 73f
10:50am 14 18 mph 1022.2mb 72f
9:50am 13 15 mph 1022mb 72f
8:50am 9 11 mph 1021.6mb 71f
7:50am 10 13 mph 1020.6mb 71f
6:50am 8 10 mph 1019.8mb 71f
5:50am 10 13 mph 1019.7mb 71f
4:50am 8 11 mph 1019.5mb 71f
3:50am 10 13 mph 1019.9mb 71f
2:50am 10 13 mph 1020.6mb 71f
1:50am 8 10 mph 1021.4mb 71f
12:50am 9 11 mph 1022.2mb 71f
Mon 03/30 11:50pm 8 10 mph 1022.8mb 71f
10:50pm 7 9 mph 1022.8mb 71f
9:50pm 10 14 mph 1022.5mb 71f
8:50pm 11 14 mph 1022.4mb 71f
7:50pm 13 15 mph 1021.9mb 71f
6:50pm 14 16 mph 1021.7mb 72f
5:50pm 13 16 mph 1021.7mb 72f
4:50pm 14 16 mph 1022.1mb 72f
3:50pm 15 18 mph 1022.7mb 72f
2:50pm 8 10 mph 1023.1mb 72f
1:50pm 9 11 mph 1023.6mb 72f
12:50pm 11 13 mph 1023.9mb 72f
11:50am 13 15 mph 1023.8mb 71f
10:50am 17 20 mph 1023.7mb 70f
9:50am 20 22 mph 1023.8mb 69f
8:50am 21 24 mph 1023.3mb 69f
7:50am 20 23 mph 1023mb 69f
6:50am 20 23 mph 1022.4mb 69f
5:50am 20 22 mph 1022.2mb 69f
4:50am 20 22 mph 1022.3mb 69f
3:50am 20 22 mph 1022.3mb 69f
2:50am 20 22 mph 1022.7mb 70f
1:50am 20 22 mph 1023.3mb 71f
12:50am 18 21 mph 1024mb 72f
Sun 03/29 11:50pm 20 22 mph 1024.6mb 72f
10:50pm 20 23 mph 1024.6mb 73f
9:50pm 17 22 mph 1024.3mb 73f
8:50pm 15 18 mph 1023.8mb 73f
7:50pm 18 22 mph 1023.5mb 73f
6:50pm 18 21 mph 1023.3mb 73f
5:50pm 18 22 mph 1023mb 73f
4:50pm 18 22 mph 1023.3mb 72f
3:50pm 16 20 mph 1024.1mb 71f
2:50pm 18 22 mph 1024.5mb 70f
1:50pm 21 24 mph 1024.9mb 69f
12:50pm 22 25 mph 1025.5mb 69f
11:50am 21 25 mph 1025.8mb 68f
10:50am 22 26 mph 1025.6mb 67f
9:50am 22 26 mph 1024.9mb 68f